Time;durP1;ratioP1;P1;durP2;ratioP2;P2;SDS_P1;SDS_P2;PMS_P1;PMS_P2;Temp;Humidity;BMP_temperature;BMP_pressure;BME280_temperature;BME280_humidity;BME280_pressure;Samples;Min_cycle;Max_cycle;Signal;HPM_P1;HPM_P2
2021/06/02 00:00:10;;;;;;;7.53;6.67;;;16.50;99.90;;;;;;5036669;28;20505;-84
2021/06/02 00:02:46;;;;;;;6.80;6.10;;;16.50;99.90;;;;;;5055548;28;20487;-81
2021/06/02 00:05:16;;;;;;;8.53;7.87;;;16.50;99.90;;;;;;5021825;28;20441;-84
2021/06/02 00:07:46;;;;;;;6.83;6.23;;;16.40;99.90;;;;;;5054926;28;20444;-83
2021/06/02 00:10:17;;;;;;;7.23;6.53;;;16.40;99.90;;;;;;5021597;28;20434;-84
2021/06/02 00:12:46;;;;;;;7.00;6.50;;;16.40;99.90;;;;;;5047981;28;20422;-84
2021/06/02 00:15:14;;;;;;;7.03;6.43;;;16.40;99.90;;;;;;5038071;28;20518;-83
2021/06/02 00:17:42;;;;;;;6.60;6.00;;;16.30;99.90;;;;;;5044670;28;20439;-84
2021/06/02 00:20:11;;;;;;;7.73;5.87;;;16.30;99.90;;;;;;5035367;28;20448;-84
2021/06/02 00:22:38;;;;;;;6.60;6.00;;;16.30;99.90;;;;;;5019102;28;20436;-83
2021/06/02 00:25:06;;;;;;;7.70;6.97;;;16.30;99.90;;;;;;5051617;28;20423;-81
2021/06/02 00:27:33;;;;;;;6.70;6.10;;;16.20;99.90;;;;;;5044528;28;20442;-84
2021/06/02 00:30:02;;;;;;;7.73;6.50;;;16.20;99.90;;;;;;5035445;28;20476;-83
2021/06/02 00:32:32;;;;;;;7.30;6.70;;;16.10;99.90;;;;;;5034364;28;20837;-83
2021/06/02 00:35:00;;;;;;;6.13;5.63;;;16.00;99.90;;;;;;5034507;28;20418;-81
2021/06/02 00:37:28;;;;;;;7.00;6.33;;;16.00;99.90;;;;;;5035128;28;20439;-81
2021/06/02 00:39:59;;;;;;;6.70;6.20;;;15.90;99.90;;;;;;5015769;28;20500;-84
2021/06/02 00:42:29;;;;;;;6.57;6.07;;;15.80;99.90;;;;;;5023996;28;20438;-84
2021/06/02 00:44:57;;;;;;;7.70;6.90;;;15.80;99.90;;;;;;5017647;28;20440;-83
2021/06/02 00:47:26;;;;;;;7.33;6.73;;;15.70;99.90;;;;;;5035340;28;20441;-81
2021/06/02 00:49:55;;;;;;;9.03;6.40;;;15.70;99.90;;;;;;5033201;28;20962;-81
2021/06/02 00:52:21;;;;;;;6.70;6.10;;;15.60;99.90;;;;;;5035023;28;20414;-81
2021/06/02 00:54:53;;;;;;;6.30;5.80;;;15.50;99.90;;;;;;5034498;28;20443;-80
2021/06/02 00:57:27;;;;;;;7.47;6.57;;;15.50;99.90;;;;;;5017417;28;20429;-81
2021/06/02 01:00:05;;;;;;;7.30;6.60;;;15.40;99.90;;;;;;5035073;28;20418;-81
2021/06/02 01:02:35;;;;;;;8.83;6.17;;;15.40;99.90;;;;;;5034531;28;20452;-81
2021/06/02 01:05:01;;;;;;;6.97;6.37;;;15.30;99.90;;;;;;5034748;28;20889;-81
2021/06/02 01:07:28;;;;;;;7.00;6.33;;;15.30;99.90;;;;;;5034571;28;20431;-81
2021/06/02 01:10:01;;;;;;;7.63;6.40;;;15.30;99.90;;;;;;5034237;28;20935;-81
2021/06/02 01:12:32;;;;;;;7.43;6.67;;;15.30;99.90;;;;;;5034595;28;20447;-81
2021/06/02 01:14:59;;;;;;;7.43;6.83;;;15.30;99.90;;;;;;5034059;28;20947;-81
2021/06/02 01:17:31;;;;;;;7.43;6.73;;;15.30;99.90;;;;;;5017147;28;20984;-81
2021/06/02 01:19:59;;;;;;;7.23;6.53;;;15.30;99.90;;;;;;5033788;28;20801;-81
2021/06/02 01:22:34;;;;;;;7.60;6.90;;;15.30;99.90;;;;;;5034266;28;20438;-81
2021/06/02 01:25:14;;;;;;;7.37;6.73;;;15.30;99.90;;;;;;5016845;28;20478;-81
2021/06/02 01:27:43;;;;;;;8.83;7.77;;;15.20;99.90;;;;;;5034316;28;20433;-81
2021/06/02 01:30:15;;;;;;;6.83;6.13;;;15.20;99.90;;;;;;5021303;28;20461;-81
2021/06/02 01:32:53;;;;;;;6.93;6.30;;;15.20;99.90;;;;;;5034104;28;20506;-81
2021/06/02 01:35:56;;;;;;;8.53;6.00;;;15.20;99.90;;;;;;5033765;28;20864;-81
2021/06/02 01:39:14;;;;;;;6.67;6.17;;;15.10;99.90;;;;;;5033961;28;20764;-81
2021/06/02 01:42:17;;;;;;;6.13;5.63;;;15.10;99.90;;;;;;4998193;28;20507;-81
2021/06/02 01:45:08;;;;;;;6.57;5.60;;;15.00;99.90;;;;;;5016092;28;20441;-81
2021/06/02 01:48:00;;;;;;;6.97;6.37;;;15.00;99.90;;;;;;5033701;28;20443;-81
2021/06/02 01:50:54;;;;;;;7.00;6.40;;;14.90;99.90;;;;;;5000507;28;20508;-81
2021/06/02 01:53:42;;;;;;;9.40;6.23;;;14.90;99.90;;;;;;5028730;28;20433;-81
2021/06/02 01:56:29;;;;;;;6.10;5.70;;;14.80;99.90;;;;;;5033760;28;20496;-81
2021/06/02 01:59:23;;;;;;;6.90;6.20;;;14.90;99.90;;;;;;5016306;28;20420;-81
2021/06/02 02:02:09;;;;;;;6.37;5.77;;;14.80;99.90;;;;;;5013608;28;20429;-81
2021/06/02 02:04:56;;;;;;;6.53;6.03;;;14.70;99.90;;;;;;5023748;28;20440;-81
2021/06/02 02:08:02;;;;;;;6.07;5.57;;;14.70;99.90;;;;;;5013880;28;20460;-81
2021/06/02 02:10:50;;;;;;;7.10;6.40;;;14.70;99.90;;;;;;5030307;28;20431;-81
2021/06/02 02:13:40;;;;;;;6.83;6.13;;;14.60;99.90;;;;;;5033050;28;20420;-81
2021/06/02 02:16:20;;;;;;;6.80;6.20;;;14.60;99.90;;;;;;5025618;28;20430;-81
2021/06/02 02:19:10;;;;;;;6.60;6.00;;;14.60;99.90;;;;;;5033320;28;20424;-81
2021/06/02 02:21:54;;;;;;;6.43;5.93;;;14.60;99.90;;;;;;5023725;28;20549;-81
2021/06/02 02:24:37;;;;;;;6.50;5.90;;;14.60;99.90;;;;;;5001514;28;20466;-81
2021/06/02 02:27:09;;;;;;;7.07;6.03;;;14.70;99.90;;;;;;5032381;28;20502;-81
2021/06/02 02:29:59;;;;;;;6.57;6.07;;;14.70;99.90;;;;;;5033480;28;20482;-81
2021/06/02 02:32:42;;;;;;;7.30;5.53;;;14.70;99.90;;;;;;5045597;28;20441;-81
2021/06/02 02:35:38;;;;;;;6.63;5.93;;;14.70;99.90;;;;;;5052985;28;20426;-81
2021/06/02 02:38:06;;;;;;;6.07;5.57;;;14.70;99.90;;;;;;5034380;28;20419;-81
2021/06/02 02:40:53;;;;;;;7.03;6.53;;;14.70;99.90;;;;;;5017512;28;20639;-81
2021/06/02 02:43:23;;;;;;;6.00;5.50;;;14.70;99.90;;;;;;5052868;28;20477;-81
2021/06/02 02:46:15;;;;;;;6.97;6.37;;;14.80;99.90;;;;;;5048594;28;20434;-81
2021/06/02 02:48:52;;;;;;;8.33;6.83;;;14.80;99.90;;;;;;5033264;28;20503;-81
2021/06/02 02:51:57;;;;;;;6.80;6.30;;;14.80;99.90;;;;;;5012846;28;20517;-81
2021/06/02 02:54:38;;;;;;;7.30;6.60;;;14.80;99.90;;;;;;5016769;28;20423;-81
2021/06/02 02:57:22;;;;;;;6.33;5.73;;;14.80;99.90;;;;;;5048932;28;20457;-80
2021/06/02 02:59:55;;;;;;;7.13;5.90;;;14.80;99.90;;;;;;5052276;28;20776;-81
2021/06/02 03:02:54;;;;;;;7.33;6.70;;;14.80;99.90;;;;;;5034841;28;20429;-80
2021/06/02 03:05:26;;;;;;;6.43;5.93;;;14.80;99.90;;;;;;5033091;28;20501;-81
2021/06/02 03:08:07;;;;;;;7.03;6.43;;;14.80;99.90;;;;;;5052145;28;20914;-81
2021/06/02 03:10:40;;;;;;;7.30;6.60;;;14.80;99.90;;;;;;5048427;28;20432;-81
2021/06/02 03:13:30;;;;;;;7.13;6.50;;;14.70;99.90;;;;;;5053120;28;20752;-81
2021/06/02 03:16:08;;;;;;;7.30;6.60;;;14.70;99.90;;;;;;5042102;28;20425;-81
2021/06/02 03:18:51;;;;;;;7.00;6.50;;;14.60;99.90;;;;;;5048751;28;20463;-81
2021/06/02 03:21:51;;;;;;;6.77;6.27;;;14.60;99.90;;;;;;5049440;28;20460;-81
2021/06/02 03:24:23;;;;;;;6.90;6.30;;;14.60;99.90;;;;;;4976036;28;20451;-80
2021/06/02 03:27:47;;;;;;;6.50;6.00;;;14.50;99.90;;;;;;5032513;28;20413;-81
2021/06/02 03:30:52;;;;;;;7.37;6.77;;;14.50;99.90;;;;;;4946083;28;20482;-81
2021/06/02 03:33:40;;;;;;;6.50;5.90;;;14.40;99.90;;;;;;4956384;28;20441;-81
2021/06/02 03:36:29;;;;;;;6.77;6.27;;;14.40;99.90;;;;;;5050948;28;20728;-80
2021/06/02 03:39:09;;;;;;;9.47;7.20;;;14.50;99.90;;;;;;5055940;28;20418;-81
2021/06/02 03:42:19;;;;;;;7.40;6.80;;;14.60;99.90;;;;;;5056233;28;20513;-81
2021/06/02 03:45:20;;;;;;;8.27;7.40;;;14.60;99.90;;;;;;5030414;28;20442;-81
2021/06/02 03:48:24;;;;;;;8.13;7.43;;;14.50;99.90;;;;;;5053090;28;20467;-81
2021/06/02 03:51:01;;;;;;;8.00;7.40;;;14.50;99.90;;;;;;5038174;28;20440;-81
2021/06/02 03:53:51;;;;;;;8.37;6.67;;;14.50;99.90;;;;;;5038572;28;20424;-80
2021/06/02 03:56:38;;;;;;;7.57;6.87;;;14.50;99.90;;;;;;5034976;28;20427;-81
2021/06/02 03:59:44;;;;;;;7.33;6.63;;;14.50;99.90;;;;;;5016096;28;20428;-81
2021/06/02 04:02:40;;;;;;;7.70;6.90;;;14.50;99.90;;;;;;5023111;28;20454;-81
2021/06/02 04:05:15;;;;;;;7.50;6.70;;;14.50;99.90;;;;;;5029244;28;20757;-81
2021/06/02 04:08:05;;;;;;;8.10;7.23;;;14.50;99.90;;;;;;5042627;28;20420;-81
2021/06/02 04:11:04;;;;;;;8.43;6.50;;;14.50;99.90;;;;;;5035774;28;20821;-81
2021/06/02 04:14:01;;;;;;;8.27;6.80;;;14.50;99.90;;;;;;5036068;28;20427;-81
2021/06/02 04:16:37;;;;;;;7.17;6.67;;;14.60;99.90;;;;;;5036826;28;20423;-80
2021/06/02 04:19:15;;;;;;;7.77;6.63;;;14.60;99.90;;;;;;5029682;28;20437;-81
2021/06/02 04:21:45;;;;;;;7.43;6.73;;;14.60;99.90;;;;;;5048557;28;20440;-82
2021/06/02 04:24:16;;;;;;;7.07;6.50;;;14.70;99.90;;;;;;5038603;28;20438;-82
2021/06/02 04:26:43;;;;;;;7.90;7.20;;;14.70;99.90;;;;;;5052887;28;20450;-82
2021/06/02 04:29:14;;;;;;;7.93;7.33;;;14.80;99.90;;;;;;5034841;28;20505;-80
2021/06/02 04:31:52;;;;;;;9.03;6.40;;;14.90;99.90;;;;;;5043892;28;20457;-82
2021/06/02 04:34:22;;;;;;;9.50;7.90;;;14.90;99.90;;;;;;5062698;28;20519;-82
2021/06/02 04:36:55;;;;;;;8.53;7.67;;;14.90;99.90;;;;;;5061982;28;20521;-81
2021/06/02 04:39:25;;;;;;;9.23;7.67;;;14.90;99.90;;;;;;5058377;28;20430;-81
2021/06/02 04:41:58;;;;;;;7.77;7.00;;;14.90;99.90;;;;;;5057268;28;20438;-81
2021/06/02 04:44:26;;;;;;;8.03;6.80;;;15.00;99.90;;;;;;5039650;28;20510;-82
2021/06/02 04:46:59;;;;;;;6.93;6.33;;;15.10;99.90;;;;;;5065040;28;20440;-82
2021/06/02 04:49:56;;;;;;;6.67;6.07;;;15.20;99.90;;;;;;5038015;28;20835;-82
2021/06/02 04:52:43;;;;;;;7.03;6.50;;;15.20;99.90;;;;;;5053212;28;20540;-81
2021/06/02 04:55:18;;;;;;;7.20;6.50;;;15.30;99.90;;;;;;5030439;28;20536;-81
2021/06/02 04:58:28;;;;;;;6.67;6.07;;;15.30;99.90;;;;;;5058164;28;20518;-81
2021/06/02 05:01:35;;;;;;;8.50;6.23;;;15.40;99.90;;;;;;5052249;28;20478;-80
2021/06/02 05:04:24;;;;;;;6.97;6.37;;;15.50;99.90;;;;;;5049451;28;20473;-81
2021/06/02 05:07:21;;;;;;;6.50;6.00;;;15.60;99.90;;;;;;5035466;28;20435;-81
2021/06/02 05:10:21;;;;;;;6.93;6.33;;;15.70;99.90;;;;;;5065596;28;20462;-81
2021/06/02 05:13:08;;;;;;;9.07;7.00;;;15.80;99.90;;;;;;5062900;28;20895;-81
2021/06/02 05:16:11;;;;;;;7.10;6.50;;;15.90;99.90;;;;;;5054994;28;20779;-81
2021/06/02 05:18:59;;;;;;;6.80;6.27;;;16.00;99.90;;;;;;5057602;28;20429;-81
2021/06/02 05:22:05;;;;;;;6.87;6.37;;;16.00;99.90;;;;;;5052734;28;20846;-80
2021/06/02 05:24:54;;;;;;;6.63;6.13;;;16.10;99.90;;;;;;5046593;28;20458;-81
2021/06/02 05:27:41;;;;;;;7.07;6.47;;;16.20;99.90;;;;;;5060138;28;20817;-81
2021/06/02 05:30:28;;;;;;;7.20;6.60;;;16.30;99.90;;;;;;5068206;28;20870;-81
2021/06/02 05:33:53;;;;;;;6.60;6.00;;;16.40;99.90;;;;;;5051225;28;20964;-81
2021/06/02 05:37:04;;;;;;;6.70;6.10;;;16.60;99.90;;;;;;5002058;28;20477;-81
2021/06/02 05:39:54;;;;;;;6.70;6.10;;;16.70;99.90;;;;;;4984841;28;20435;-81
2021/06/02 05:42:27;;;;;;;8.30;6.53;;;16.90;99.90;;;;;;4999668;28;20453;-81
2021/06/02 05:45:14;;;;;;;8.37;6.80;;;17.00;99.90;;;;;;4989349;28;20419;-81
2021/06/02 05:47:51;;;;;;;6.43;5.80;;;17.10;99.90;;;;;;5005100;28;20831;-81
2021/06/02 05:50:51;;;;;;;7.93;6.60;;;17.20;99.90;;;;;;5006158;28;20489;-81
2021/06/02 05:53:49;;;;;;;7.70;6.90;;;17.40;99.90;;;;;;4967711;28;21023;-81
2021/06/02 05:56:27;;;;;;;7.77;7.17;;;17.50;99.90;;;;;;4994903;28;20444;-81
2021/06/02 05:59:23;;;;;;;11.10;6.70;;;17.50;99.90;;;;;;4977444;28;20492;-84
2021/06/02 06:02:03;;;;;;;7.43;6.73;;;17.70;99.90;;;;;;5008322;28;20939;-79
2021/06/02 06:04:37;;;;;;;7.47;7.03;;;17.80;99.90;;;;;;4998655;28;20434;-83
2021/06/02 06:07:40;;;;;;;7.67;6.97;;;17.90;99.90;;;;;;5022936;28;20426;-81
2021/06/02 06:10:09;;;;;;;8.00;7.40;;;18.10;99.40;;;;;;5048228;28;20500;-83
2021/06/02 06:13:05;;;;;;;7.50;6.87;;;18.30;97.20;;;;;;5042122;28;20822;-82
2021/06/02 06:16:05;;;;;;;9.00;7.00;;;18.40;96.50;;;;;;5034929;28;20439;-83
2021/06/02 06:18:42;;;;;;;8.37;7.17;;;18.60;96.10;;;;;;5051243;28;20506;-83
2021/06/02 06:21:41;;;;;;;7.80;7.03;;;18.70;95.80;;;;;;5059987;28;20437;-83
2021/06/02 06:24:16;;;;;;;7.43;6.83;;;18.90;95.70;;;;;;5056475;28;20456;-83
2021/06/02 06:27:19;;;;;;;7.47;6.97;;;19.00;96.40;;;;;;5060404;28;20514;-83
2021/06/02 06:29:56;;;;;;;7.30;6.70;;;19.20;94.00;;;;;;5003684;28;21039;-83
2021/06/02 06:32:25;;;;;;;7.80;7.10;;;19.30;94.40;;;;;;5029356;28;20525;-84
2021/06/02 06:34:53;;;;;;;8.20;7.33;;;19.40;94.60;;;;;;5009047;28;20782;-81
2021/06/02 06:37:21;;;;;;;7.33;6.73;;;19.50;93.90;;;;;;5017108;28;20432;-85
2021/06/02 06:39:58;;;;;;;7.47;6.87;;;19.70;94.00;;;;;;5035311;28;20441;-85
2021/06/02 06:42:28;;;;;;;7.30;6.80;;;19.80;93.30;;;;;;5030139;28;20483;-85
2021/06/02 06:45:00;;;;;;;7.80;7.10;;;19.90;93.30;;;;;;5013603;28;20441;-85
2021/06/02 06:47:26;;;;;;;8.23;7.30;;;20.00;94.50;;;;;;5032745;28;20514;-85
2021/06/02 06:49:57;;;;;;;8.03;7.17;;;20.10;93.80;;;;;;5036104;28;20965;-85
2021/06/02 06:52:27;;;;;;;7.50;7.03;;;20.30;93.30;;;;;;5042550;28;20447;-81
2021/06/02 06:54:58;;;;;;;8.77;7.87;;;20.40;92.80;;;;;;5035078;28;20792;-80
2021/06/02 06:57:27;;;;;;;7.50;6.90;;;20.60;90.80;;;;;;5037913;28;20430;-81
2021/06/02 06:59:56;;;;;;;7.60;7.10;;;20.70;90.70;;;;;;5035579;28;20427;-80
2021/06/02 07:02:23;;;;;;;6.97;6.57;;;20.80;91.00;;;;;;5017034;28;20444;-83
2021/06/02 07:04:50;;;;;;;7.10;6.60;;;20.90;90.70;;;;;;5035776;28;20445;-83
2021/06/02 07:07:18;;;;;;;8.20;7.60;;;21.00;90.20;;;;;;5035716;28;20440;-85
2021/06/02 07:09:46;;;;;;;7.43;6.93;;;21.10;87.50;;;;;;5043444;28;20471;-86
2021/06/02 07:12:16;;;;;;;7.83;7.23;;;21.20;88.00;;;;;;5036412;28;20544;-83
2021/06/02 07:14:45;;;;;;;8.43;6.93;;;21.30;86.30;;;;;;5038195;28;20441;-86
2021/06/02 07:17:17;;;;;;;8.13;7.53;;;21.40;87.10;;;;;;5037097;28;20426;-87
2021/06/02 07:19:48;;;;;;;7.93;7.27;;;21.50;86.70;;;;;;5036449;28;20468;-84
2021/06/02 07:22:20;;;;;;;7.60;7.10;;;21.50;86.80;;;;;;5039209;28;20500;-82
2021/06/02 07:24:47;;;;;;;7.87;7.37;;;21.70;85.80;;;;;;5035894;28;20512;-84
2021/06/02 07:27:16;;;;;;;14.93;8.00;;;21.70;85.50;;;;;;5035720;28;20427;-87
2021/06/02 07:29:42;;;;;;;8.63;7.63;;;21.80;84.60;;;;;;5012991;28;20482;-86
2021/06/02 07:32:11;;;;;;;8.77;8.07;;;21.90;84.90;;;;;;5034532;28;20518;-84
2021/06/02 07:34:37;;;;;;;8.07;7.47;;;21.90;85.10;;;;;;5043734;28;20517;-85
2021/06/02 07:37:03;;;;;;;8.00;7.40;;;22.10;82.60;;;;;;5041624;28;20758;-86
2021/06/02 07:39:29;;;;;;;8.70;7.40;;;22.10;83.10;;;;;;5033027;28;20500;-86
2021/06/02 07:41:55;;;;;;;8.13;7.43;;;22.00;84.00;;;;;;5033111;28;20509;-86
2021/06/02 07:44:21;;;;;;;8.27;7.60;;;22.10;82.20;;;;;;5035144;28;20549;-81
2021/06/02 07:46:49;;;;;;;8.53;7.97;;;22.30;79.80;;;;;;5036043;28;20431;-81
2021/06/02 07:49:15;;;;;;;7.87;7.33;;;22.30;80.80;;;;;;5037517;28;20953;-81
2021/06/02 07:51:41;;;;;;;8.57;7.87;;;22.50;79.70;;;;;;5034025;28;20430;-81
2021/06/02 07:54:10;;;;;;;8.83;8.13;;;22.60;80.40;;;;;;5018673;28;20440;-80
2021/06/02 07:56:41;;;;;;;8.13;7.53;;;22.70;77.30;;;;;;5039417;28;20427;-83
2021/06/02 07:59:09;;;;;;;8.10;7.40;;;22.80;77.40;;;;;;5036247;28;20818;-83
2021/06/02 08:01:37;;;;;;;8.37;7.67;;;22.90;76.10;;;;;;5033828;28;20907;-84
2021/06/02 08:04:08;;;;;;;7.80;7.30;;;22.90;78.50;;;;;;5021117;28;20865;-84
2021/06/02 08:06:34;;;;;;;8.77;8.07;;;22.90;74.90;;;;;;5034757;28;20423;-84
2021/06/02 08:09:00;;;;;;;7.80;7.30;;;23.00;73.40;;;;;;5037054;28;20454;-84
2021/06/02 08:11:26;;;;;;;8.20;7.50;;;23.10;75.00;;;;;;5034612;28;20557;-83
2021/06/02 08:13:52;;;;;;;8.27;7.67;;;23.20;72.40;;;;;;5024333;28;20522;-84
2021/06/02 08:16:21;;;;;;;9.40;8.57;;;23.30;76.20;;;;;;5039969;28;20766;-82
2021/06/02 08:18:51;;;;;;;8.50;7.90;;;23.30;72.80;;;;;;5035873;28;20431;-83
2021/06/02 08:21:22;;;;;;;8.50;7.90;;;23.40;71.70;;;;;;5038705;28;20501;-81
2021/06/02 08:23:50;;;;;;;8.33;7.73;;;23.40;71.30;;;;;;5016944;28;20790;-80
2021/06/02 08:26:21;;;;;;;8.97;8.10;;;23.50;71.30;;;;;;5006410;28;20443;-81
2021/06/02 08:28:49;;;;;;;9.30;8.70;;;23.70;69.80;;;;;;5034945;28;21054;-80
2021/06/02 08:31:18;;;;;;;9.40;8.73;;;23.80;67.00;;;;;;5040652;28;20489;-81
2021/06/02 08:34:14;;;;;;;8.93;8.37;;;23.80;69.30;;;;;;5033313;28;20908;-81
2021/06/02 08:36:40;;;;;;;8.70;8.00;;;23.90;67.70;;;;;;5030572;28;20427;-83
2021/06/02 08:39:07;;;;;;;8.47;7.87;;;23.80;68.60;;;;;;5039364;28;20441;-84
2021/06/02 08:41:43;;;;;;;8.90;8.30;;;23.90;69.20;;;;;;5033162;28;20436;-88
2021/06/02 08:44:09;;;;;;;7.83;7.27;;;24.00;70.50;;;;;;5033772;28;20931;-85
2021/06/02 08:46:38;;;;;;;8.43;7.63;;;24.10;67.40;;;;;;5034567;28;20926;-86
2021/06/02 08:49:07;;;;;;;8.00;7.40;;;24.20;66.60;;;;;;5032991;28;20467;-86
2021/06/02 08:51:36;;;;;;;7.90;7.13;;;24.30;63.80;;;;;;5030497;28;20978;-83
2021/06/02 08:54:02;;;;;;;9.50;8.70;;;24.40;64.30;;;;;;5022263;28;20439;-83
2021/06/02 08:56:29;;;;;;;9.37;7.33;;;24.50;64.50;;;;;;5033267;28;20435;-83
2021/06/02 08:58:56;;;;;;;8.50;7.70;;;24.60;62.80;;;;;;5033772;28;21190;-86
2021/06/02 09:01:25;;;;;;;8.10;7.60;;;24.70;63.90;;;;;;5036776;28;20514;-86
2021/06/02 09:03:54;;;;;;;8.80;8.10;;;24.80;62.50;;;;;;5016791;28;20450;-83
2021/06/02 09:06:23;;;;;;;9.00;8.40;;;24.90;62.60;;;;;;5000142;28;20447;-84
2021/06/02 09:08:56;;;;;;;8.23;7.73;;;25.00;65.10;;;;;;5019044;28;20562;-82
2021/06/02 09:11:25;;;;;;;8.50;7.90;;;25.10;61.30;;;;;;5034503;28;20485;-82
2021/06/02 09:13:54;;;;;;;9.00;8.10;;;25.20;60.80;;;;;;5032429;28;20903;-84
2021/06/02 09:16:30;;;;;;;8.23;7.67;;;25.30;62.90;;;;;;5039601;28;20923;-83
2021/06/02 09:19:09;;;;;;;9.00;8.47;;;25.40;61.80;;;;;;5025984;28;20909;-82
2021/06/02 09:21:42;;;;;;;8.03;7.43;;;25.60;61.00;;;;;;5031317;28;20466;-82
2021/06/02 09:24:08;;;;;;;8.13;7.60;;;25.90;60.10;;;;;;5033851;28;20435;-90
2021/06/02 09:26:37;;;;;;;8.13;7.27;;;26.10;56.70;;;;;;5037867;28;20555;-90
2021/06/02 09:29:32;;;;;;;8.40;7.87;;;26.40;54.50;;;;;;5037989;28;21031;-89
2021/06/02 09:31:58;;;;;;;8.07;7.37;;;26.50;53.10;;;;;;5043910;28;20445;-88
2021/06/02 09:34:28;;;;;;;7.50;7.00;;;26.80;48.40;;;;;;5028645;28;20870;-87
2021/06/02 09:37:09;;;;;;;8.67;8.17;;;27.00;48.40;;;;;;5046572;28;20196;-85
2021/06/02 09:39:44;;;;;;;7.80;7.40;;;27.10;46.30;;;;;;5047126;28;20891;-82
2021/06/02 09:42:23;;;;;;;7.53;7.00;;;27.20;46.80;;;;;;5026166;28;20425;-82
2021/06/02 09:45:10;;;;;;;7.90;7.50;;;27.30;45.90;;;;;;5026181;28;20953;-82
2021/06/02 09:47:48;;;;;;;8.07;7.60;;;27.60;46.30;;;;;;5027152;28;20769;-81
2021/06/02 09:50:25;;;;;;;8.17;7.67;;;27.80;45.80;;;;;;5032952;28;20550;-79
2021/06/02 09:52:52;;;;;;;8.43;7.80;;;28.10;44.30;;;;;;5030896;28;20443;-81
2021/06/02 09:55:25;;;;;;;8.17;7.60;;;28.30;45.30;;;;;;5028050;28;20431;-80
2021/06/02 09:58:06;;;;;;;7.40;7.00;;;28.30;43.80;;;;;;5048009;28;20439;-85
2021/06/02 10:00:39;;;;;;;8.30;7.90;;;28.40;43.70;;;;;;5047664;28;20528;-80
2021/06/02 10:03:12;;;;;;;7.77;7.47;;;28.60;41.50;;;;;;5050779;28;20449;-86
2021/06/02 10:05:38;;;;;;;7.80;7.30;;;28.60;42.50;;;;;;5050958;28;20512;-79
2021/06/02 10:08:13;;;;;;;9.33;8.47;;;28.70;42.20;;;;;;5033688;28;20430;-79
2021/06/02 10:10:57;;;;;;;8.67;8.17;;;28.80;41.30;;;;;;5046023;28;20493;-79
2021/06/02 10:13:27;;;;;;;8.20;7.70;;;29.10;41.50;;;;;;5039344;28;20431;-80
2021/06/02 10:15:55;;;;;;;8.33;7.83;;;29.20;42.20;;;;;;5046903;28;20518;-79
2021/06/02 10:18:39;;;;;;;8.67;7.97;;;29.30;41.90;;;;;;5038191;28;20433;-80
2021/06/02 10:21:08;;;;;;;7.70;7.20;;;29.70;41.40;;;;;;5033832;28;20909;-80
2021/06/02 10:23:43;;;;;;;8.37;7.87;;;29.80;40.90;;;;;;5037521;28;20439;-80
2021/06/02 10:26:19;;;;;;;8.23;7.63;;;29.80;39.30;;;;;;5051213;28;20415;-80
2021/06/02 10:28:47;;;;;;;8.97;8.33;;;29.70;38.80;;;;;;5046969;28;20537;-80
2021/06/02 10:31:14;;;;;;;8.93;8.23;;;29.80;38.60;;;;;;5043728;28;20462;-81
2021/06/02 10:33:43;;;;;;;8.30;7.80;;;29.80;38.60;;;;;;5028217;28;20791;-79
2021/06/02 10:36:10;;;;;;;8.77;8.27;;;30.00;38.60;;;;;;5045533;28;20434;-79
2021/06/02 10:38:42;;;;;;;9.30;8.70;;;29.90;38.60;;;;;;5021509;28;20777;-79
2021/06/02 10:41:10;;;;;;;8.20;7.80;;;29.90;39.00;;;;;;5035994;28;20443;-80
2021/06/02 10:43:46;;;;;;;8.70;8.20;;;30.00;38.50;;;;;;5037284;28;20446;-79
2021/06/02 10:46:22;;;;;;;8.87;8.27;;;30.20;39.10;;;;;;5040246;28;20441;-80
2021/06/02 10:48:54;;;;;;;9.20;8.70;;;30.50;38.30;;;;;;5024319;28;20466;-80
2021/06/02 10:51:30;;;;;;;8.40;7.90;;;30.70;37.20;;;;;;5016578;28;20482;-79
2021/06/02 10:54:16;;;;;;;8.47;8.07;;;30.70;36.30;;;;;;5037028;28;20881;-79
2021/06/02 10:57:02;;;;;;;8.40;7.90;;;30.80;35.80;;;;;;5038184;28;20453;-79
2021/06/02 10:59:36;;;;;;;8.97;8.40;;;31.00;36.80;;;;;;5038372;28;20822;-79
2021/06/02 11:02:08;;;;;;;9.37;8.67;;;31.00;36.80;;;;;;5038289;28;20771;-82
2021/06/02 11:05:13;;;;;;;8.70;8.00;;;31.10;35.50;;;;;;5038645;28;20502;-80
2021/06/02 11:07:51;;;;;;;9.20;8.30;;;31.50;36.20;;;;;;4973748;28;21098;-81
2021/06/02 11:10:18;;;;;;;8.50;8.10;;;31.70;35.20;;;;;;5018295;28;20977;-80
2021/06/02 11:12:49;;;;;;;8.33;7.93;;;31.80;34.90;;;;;;5039467;28;20434;-78
2021/06/02 11:15:41;;;;;;;9.27;8.67;;;31.80;36.50;;;;;;5038142;28;20442;-80
2021/06/02 11:18:10;;;;;;;8.80;8.30;;;31.80;34.00;;;;;;5020246;28;20776;-82
2021/06/02 11:20:46;;;;;;;8.83;8.33;;;31.70;35.10;;;;;;5028295;28;20443;-82
2021/06/02 11:23:14;;;;;;;9.00;8.43;;;32.10;37.20;;;;;;5032284;28;20446;-84
2021/06/02 11:25:41;;;;;;;9.10;8.30;;;32.10;33.70;;;;;;5037568;28;20426;-84
2021/06/02 11:28:49;;;;;;;9.20;8.27;;;32.40;36.90;;;;;;5038636;28;20453;-82
2021/06/02 11:31:27;;;;;;;8.90;8.27;;;32.40;34.30;;;;;;5057029;28;20806;-82
2021/06/02 11:34:29;;;;;;;8.93;8.33;;;32.50;37.00;;;;;;5063176;28;20437;-83
2021/06/02 11:36:58;;;;;;;9.60;9.00;;;32.60;35.00;;;;;;5058471;28;20424;-83
2021/06/02 11:39:25;;;;;;;9.70;9.10;;;32.70;35.50;;;;;;5058327;28;20434;-83
2021/06/02 11:41:58;;;;;;;8.57;8.00;;;32.70;33.70;;;;;;5054821;28;20805;-82
2021/06/02 11:44:35;;;;;;;9.53;8.90;;;32.90;34.80;;;;;;5051703;28;20435;-80
2021/06/02 11:47:03;;;;;;;9.77;8.93;;;33.30;36.20;;;;;;5049710;28;20875;-81
2021/06/02 11:49:34;;;;;;;8.73;8.23;;;33.50;33.90;;;;;;5054997;28;20474;-80
2021/06/02 11:52:10;;;;;;;8.83;8.20;;;33.40;34.40;;;;;;5058179;28;20941;-81
2021/06/02 11:54:56;;;;;;;9.47;8.87;;;33.40;33.60;;;;;;5061210;28;20456;-81
2021/06/02 11:57:29;;;;;;;8.87;8.07;;;33.40;34.00;;;;;;5037504;28;20437;-83
2021/06/02 11:59:56;;;;;;;8.80;8.20;;;33.60;35.20;;;;;;5054835;28;20533;-84
2021/06/02 12:02:23;;;;;;;8.70;8.20;;;33.50;32.60;;;;;;5058178;28;20440;-83
2021/06/02 12:04:48;;;;;;;9.10;8.57;;;33.50;33.00;;;;;;5050421;28;20426;-82
2021/06/02 12:07:22;;;;;;;8.70;8.20;;;33.70;34.70;;;;;;5054504;28;20518;-85
2021/06/02 12:09:56;;;;;;;8.87;8.27;;;33.80;34.60;;;;;;5062256;28;21130;-82
2021/06/02 12:12:25;;;;;;;9.40;8.73;;;33.60;32.60;;;;;;5053520;28;20445;-83
2021/06/02 12:14:56;;;;;;;8.90;8.30;;;33.60;33.20;;;;;;5054462;28;20456;-82
2021/06/02 12:17:31;;;;;;;8.90;8.50;;;33.60;31.20;;;;;;5070764;28;20441;-83
2021/06/02 12:19:59;;;;;;;9.83;9.13;;;33.70;31.00;;;;;;5060475;28;20453;-82
2021/06/02 12:22:28;;;;;;;9.13;8.60;;;33.70;29.70;;;;;;5061927;28;20511;-82
2021/06/02 12:25:09;;;;;;;9.47;8.97;;;33.70;31.60;;;;;;5054435;28;20435;-84
2021/06/02 12:27:40;;;;;;;9.47;9.00;;;33.80;30.90;;;;;;5052935;28;20457;-86
2021/06/02 12:30:22;;;;;;;9.40;8.67;;;33.80;30.70;;;;;;5044993;28;20497;-85
2021/06/02 12:32:58;;;;;;;9.07;8.47;;;34.00;31.30;;;;;;5061089;28;20889;-85
2021/06/02 12:35:31;;;;;;;9.90;9.30;;;33.90;32.20;;;;;;5036282;28;20465;-83
2021/06/02 12:38:16;;;;;;;9.37;8.87;;;34.20;31.90;;;;;;5057120;28;20967;-86
2021/06/02 12:40:55;;;;;;;9.40;8.90;;;34.20;32.30;;;;;;5061569;28;20550;-86
2021/06/02 12:43:25;;;;;;;9.47;8.97;;;34.20;30.40;;;;;;5062707;28;20469;-82
2021/06/02 12:46:06;;;;;;;8.73;7.97;;;34.20;31.60;;;;;;5039831;28;20839;-83
2021/06/02 12:48:35;;;;;;;8.67;7.97;;;34.40;30.40;;;;;;5037024;28;20470;-81
2021/06/02 12:51:02;;;;;;;9.60;9.10;;;34.70;30.90;;;;;;5051530;28;20430;-81
2021/06/02 12:53:46;;;;;;;8.90;8.50;;;34.80;30.20;;;;;;5056020;28;20448;-82
2021/06/02 12:56:14;;;;;;;9.00;8.60;;;34.70;29.40;;;;;;5063175;28;20434;-81
2021/06/02 12:58:51;;;;;;;9.70;9.17;;;34.80;29.50;;;;;;5063539;28;20460;-81
2021/06/02 13:01:33;;;;;;;8.67;8.17;;;34.60;28.70;;;;;;5048108;28;20434;-84
2021/06/02 13:04:02;;;;;;;9.10;8.43;;;34.60;31.10;;;;;;5042469;28;20449;-81
2021/06/02 13:06:36;;;;;;;9.10;8.60;;;34.60;29.60;;;;;;5061346;28;20446;-81
2021/06/02 13:09:09;;;;;;;9.13;8.53;;;34.50;29.40;;;;;;5053215;28;20795;-82
2021/06/02 13:11:36;;;;;;;8.80;8.40;;;34.40;29.00;;;;;;5056556;28;20433;-83
2021/06/02 13:14:03;;;;;;;8.97;8.47;;;34.40;29.40;;;;;;5052688;28;20470;-83
2021/06/02 13:16:36;;;;;;;8.50;8.00;;;34.30;29.70;;;;;;5062022;28;20796;-82
2021/06/02 13:19:07;;;;;;;9.67;8.97;;;34.50;29.70;;;;;;5061627;28;20479;-86
2021/06/02 13:21:35;;;;;;;8.40;8.00;;;34.90;28.70;;;;;;5053644;28;20444;-86
2021/06/02 13:24:18;;;;;;;9.57;8.90;;;35.00;29.00;;;;;;5046405;28;20464;-82
2021/06/02 13:26:55;;;;;;;9.67;9.13;;;35.20;27.80;;;;;;5063007;28;20951;-82
2021/06/02 13:29:21;;;;;;;10.10;9.50;;;35.50;27.80;;;;;;5053867;28;20558;-82
2021/06/02 13:31:49;;;;;;;9.97;9.43;;;35.40;28.00;;;;;;5056350;28;20438;-81
2021/06/02 13:34:38;;;;;;;9.20;8.60;;;35.30;27.90;;;;;;5054675;28;20876;-82
2021/06/02 13:37:15;;;;;;;9.57;9.00;;;35.10;28.20;;;;;;5053722;28;20429;-82